Time;durP1;ratioP1;P1;durP2;ratioP2;P2;SDS_P1;SDS_P2;PMS_P1;PMS_P2;Temp;Humidity;BMP_temperature;BMP_pressure;BME280_temperature;BME280_humidity;BME280_pressure;Samples;Min_cycle;Max_cycle;Signal;HPM_P1;HPM_P2
2024/02/05 00:01:11;;;;;;;4.82;2.10;;;;;;;10.38;56.02;101665.91;5029507;28;20092;-74
2024/02/05 00:03:40;;;;;;;6.68;2.50;;;;;;;10.39;56.17;101670.41;5017962;28;20571;-73
2024/02/05 00:06:10;;;;;;;5.25;2.38;;;;;;;10.39;56.26;101664.94;5028862;28;20575;-74
2024/02/05 00:08:38;;;;;;;5.35;2.30;;;;;;;10.40;56.12;101665.81;5036102;28;20033;-74
2024/02/05 00:11:08;;;;;;;6.93;2.38;;;;;;;10.42;56.33;101661.06;5009424;28;20041;-74
2024/02/05 00:13:36;;;;;;;5.00;1.98;;;;;;;10.42;56.44;101663.81;5035784;28;20605;-74
2024/02/05 00:16:05;;;;;;;6.55;2.78;;;;;;;10.42;56.46;101658.34;5020820;28;20539;-75
2024/02/05 00:18:33;;;;;;;7.35;3.40;;;;;;;10.43;56.17;101665.56;5026026;28;20764;-74
2024/02/05 00:21:02;;;;;;;6.72;2.60;;;;;;;10.42;55.78;101667.41;5029100;28;20057;-74
2024/02/05 00:23:30;;;;;;;7.50;2.90;;;;;;;10.41;55.82;101662.94;5030673;28;20537;-74
2024/02/05 00:25:58;;;;;;;8.65;2.80;;;;;;;10.43;55.81;101679.25;5030542;28;20547;-74
2024/02/05 00:28:28;;;;;;;6.35;2.35;;;;;;;10.42;55.85;101675.63;5027427;28;20048;-74
2024/02/05 00:30:56;;;;;;;6.38;2.60;;;;;;;10.43;55.80;101668.31;5006993;28;20460;-74
2024/02/05 00:33:24;;;;;;;7.05;2.95;;;;;;;10.43;55.98;101671.91;5011502;28;20038;-74
2024/02/05 00:35:52;;;;;;;6.47;2.20;;;;;;;10.43;56.17;101671.03;5036385;28;20051;-74
2024/02/05 00:38:20;;;;;;;5.88;2.35;;;;;;;10.43;55.75;101676.50;5031493;28;20501;-73
2024/02/05 00:40:48;;;;;;;5.25;3.00;;;;;;;10.43;55.66;101671.91;5022417;28;20125;-74
2024/02/05 00:43:16;;;;;;;6.78;2.30;;;;;;;10.43;55.67;101665.56;5010518;28;20123;-74
2024/02/05 00:45:45;;;;;;;6.63;2.80;;;;;;;10.46;55.96;101662.63;5018625;28;20056;-74
2024/02/05 00:48:13;;;;;;;5.70;2.45;;;;;;;10.46;55.84;101668.09;5009485;28;20100;-74
2024/02/05 00:50:42;;;;;;;8.40;2.50;;;;;;;10.42;55.81;101672.03;4999240;28;20038;-75
2024/02/05 00:53:10;;;;;;;8.13;2.85;;;;;;;10.44;55.84;101676.41;5030137;28;20061;-74
2024/02/05 00:55:38;;;;;;;8.95;3.20;;;;;;;10.44;55.65;101676.41;5021821;28;20096;-74
2024/02/05 00:58:05;;;;;;;6.78;2.88;;;;;;;10.46;55.55;101665.34;5021626;28;20052;-75
2024/02/05 01:00:35;;;;;;;7.53;2.72;;;;;;;10.45;55.84;101672.69;5020821;28;20069;-75
2024/02/05 01:03:05;;;;;;;7.47;3.38;;;;;;;10.46;55.82;101663.50;5027657;28;20041;-74
2024/02/05 01:05:33;;;;;;;6.07;2.58;;;;;;;10.46;55.35;101668.97;5019196;28;20444;-75
2024/02/05 01:08:02;;;;;;;7.95;3.00;;;;;;;10.46;55.31;101654.41;5021141;28;20053;-74
2024/02/05 01:10:30;;;;;;;8.77;3.08;;;;;;;10.47;55.49;101669.84;5023213;28;20034;-75
2024/02/05 01:12:58;;;;;;;8.88;3.17;;;;;;;10.45;55.82;101669.94;5018724;28;20050;-75
2024/02/05 01:15:26;;;;;;;6.53;2.90;;;;;;;10.47;55.37;101667.09;5000435;28;20057;-74
2024/02/05 01:17:54;;;;;;;6.93;3.15;;;;;;;10.48;55.57;101666.13;5015674;28;20315;-75
2024/02/05 01:20:23;;;;;;;9.00;3.40;;;;;;;10.49;55.33;101656.88;5002237;28;20137;-75
2024/02/05 01:22:51;;;;;;;6.05;2.85;;;;;;;10.48;55.39;101666.97;5017697;28;20132;-75
2024/02/05 01:25:19;;;;;;;6.88;2.72;;;;;;;10.49;55.50;101657.75;5004122;28;20038;-75
2024/02/05 01:27:48;;;;;;;8.43;2.97;;;;;;;10.50;55.10;101664.13;5027068;28;20069;-75
2024/02/05 01:30:16;;;;;;;8.15;3.20;;;;;;;10.50;54.97;101656.78;5021812;28;20113;-75
2024/02/05 01:32:44;;;;;;;8.23;3.22;;;;;;;10.49;55.48;101654.16;5007948;28;20062;-75
2024/02/05 01:35:12;;;;;;;7.18;2.75;;;;;;;10.50;55.51;101656.78;4998961;28;20046;-75
2024/02/05 01:37:42;;;;;;;7.55;3.10;;;;;;;10.53;54.95;101664.81;5028441;28;20124;-75
2024/02/05 01:40:10;;;;;;;8.65;2.78;;;;;;;10.51;54.92;101660.38;5030070;28;20134;-75
2024/02/05 01:42:39;;;;;;;8.00;3.10;;;;;;;10.53;54.98;101656.59;5029929;28;20038;-75
2024/02/05 01:45:09;;;;;;;7.43;3.25;;;;;;;10.50;55.07;101651.31;5028779;28;20124;-74
2024/02/05 01:47:38;;;;;;;10.80;2.95;;;;;;;10.52;55.24;101656.66;5011519;28;20030;-74
2024/02/05 01:50:09;;;;;;;8.13;2.75;;;;;;;10.52;54.69;101641.13;5000014;28;20053;-75
2024/02/05 01:52:44;;;;;;;7.03;3.20;;;;;;;10.52;54.57;101649.34;5028195;28;20041;-75
2024/02/05 01:55:13;;;;;;;7.95;2.83;;;;;;;10.50;54.90;101639.47;5023290;28;20048;-73
2024/02/05 01:57:42;;;;;;;7.30;3.00;;;;;;;10.51;54.67;101643.97;5027860;28;20041;-73
2024/02/05 02:00:12;;;;;;;6.47;2.70;;;;;;;10.50;55.08;101636.75;5014094;28;20058;-74
2024/02/05 02:02:41;;;;;;;7.55;2.67;;;;;;;10.51;54.58;101652.19;5027073;28;20045;-73
2024/02/05 02:05:10;;;;;;;9.68;3.10;;;;;;;10.49;54.63;101644.09;5012769;28;20135;-73
2024/02/05 02:07:39;;;;;;;8.52;3.28;;;;;;;10.49;54.97;101649.56;5025643;28;20049;-74
2024/02/05 02:10:09;;;;;;;9.98;3.72;;;;;;;10.50;54.70;101651.31;5002172;28;20041;-74
2024/02/05 02:12:37;;;;;;;6.97;2.85;;;;;;;10.49;54.94;101643.22;5024273;28;20128;-74
2024/02/05 02:15:06;;;;;;;10.07;3.63;;;;;;;10.49;54.45;101635.88;5000806;28;20044;-74
2024/02/05 02:17:38;;;;;;;7.63;2.75;;;;;;;10.51;54.23;101641.22;5024290;28;20038;-74
2024/02/05 02:20:09;;;;;;;7.40;2.65;;;;;;;10.48;54.62;101647.81;5014892;28;20044;-74
2024/02/05 02:22:45;;;;;;;8.88;3.13;;;;;;;10.48;54.63;101653.28;5009106;28;20740;-74
2024/02/05 02:25:15;;;;;;;6.43;2.90;;;;;;;10.48;54.35;101656.00;5031486;28;20040;-74
2024/02/05 02:27:43;;;;;;;6.57;3.03;;;;;;;10.48;54.39;101655.16;5033394;28;20037;-74
2024/02/05 02:30:14;;;;;;;9.30;3.17;;;;;;;10.49;54.31;101660.50;5012500;28;20505;-74
2024/02/05 02:32:49;;;;;;;7.88;2.67;;;;;;;10.49;54.54;101648.69;5013518;28;20052;-74
2024/02/05 02:35:25;;;;;;;8.27;3.05;;;;;;;10.50;54.22;101650.44;5001488;28;20137;-74
2024/02/05 02:38:00;;;;;;;13.63;4.05;;;;;;;10.49;54.42;101656.88;5027179;28;20104;-74
2024/02/05 02:40:34;;;;;;;8.55;3.03;;;;;;;10.48;54.66;101647.81;5036949;28;20053;-74
2024/02/05 02:43:03;;;;;;;9.10;3.45;;;;;;;10.48;54.80;101652.44;5013946;28;20536;-74
2024/02/05 02:45:33;;;;;;;7.70;3.10;;;;;;;10.47;54.25;101647.94;5028064;28;20459;-74
2024/02/05 02:48:01;;;;;;;10.27;3.40;;;;;;;10.48;54.29;101647.81;5021689;28;20049;-74
2024/02/05 02:50:29;;;;;;;8.90;3.53;;;;;;;10.47;54.67;101648.81;5029094;28;20515;-74
2024/02/05 02:52:57;;;;;;;9.07;3.60;;;;;;;10.47;54.52;101653.41;5009332;28;20060;-74
2024/02/05 02:55:25;;;;;;;9.70;3.53;;;;;;;10.47;54.48;101648.81;5029279;28;20119;-74
2024/02/05 02:57:55;;;;;;;9.02;3.40;;;;;;;10.48;54.47;101650.53;5001745;28;20096;-74
2024/02/05 03:00:23;;;;;;;8.98;3.47;;;;;;;10.47;54.59;101662.50;5003420;28;20042;-74
2024/02/05 03:02:51;;;;;;;8.23;3.08;;;;;;;10.47;54.25;101650.69;4995326;28;20050;-74
2024/02/05 03:05:19;;;;;;;9.50;2.90;;;;;;;10.48;54.22;101660.63;5016548;28;20495;-75
2024/02/05 03:07:48;;;;;;;9.95;3.42;;;;;;;10.47;54.46;101670.72;5014234;28;20045;-74
2024/02/05 03:10:16;;;;;;;8.05;3.10;;;;;;;10.47;53.91;101654.28;5022350;28;20358;-74
2024/02/05 03:12:44;;;;;;;8.23;3.22;;;;;;;10.48;54.26;101649.69;5019283;28;20050;-74
2024/02/05 03:15:13;;;;;;;11.48;3.22;;;;;;;10.49;54.36;101657.75;5007832;28;20092;-74
2024/02/05 03:17:41;;;;;;;9.50;3.03;;;;;;;10.48;54.18;101656.00;5032008;28;20519;-74
2024/02/05 03:20:14;;;;;;;11.02;3.30;;;;;;;10.48;54.03;101658.75;5003645;28;20132;-74
2024/02/05 03:22:42;;;;;;;5.70;2.85;;;;;;;10.46;54.51;101660.75;5004272;28;20050;-74
2024/02/05 03:25:16;;;;;;;10.27;3.63;;;;;;;10.49;54.15;101665.09;5021348;28;20061;-74
2024/02/05 03:27:44;;;;;;;10.95;3.05;;;;;;;10.49;53.95;101665.97;5013346;28;20108;-74
2024/02/05 03:30:14;;;;;;;9.82;3.20;;;;;;;10.50;53.88;101675.06;5023141;28;20037;-74
2024/02/05 03:32:42;;;;;;;9.20;3.28;;;;;;;10.50;54.22;101669.59;5024393;28;20490;-74
2024/02/05 03:35:12;;;;;;;10.88;3.47;;;;;;;10.49;53.82;101667.84;4997277;28;20046;-74
2024/02/05 03:37:40;;;;;;;7.70;2.92;;;;;;;10.49;53.73;101667.84;5008436;28;20044;-74
2024/02/05 03:40:09;;;;;;;9.05;3.03;;;;;;;10.51;53.95;101671.34;5017813;28;20045;-75
2024/02/05 03:42:37;;;;;;;6.32;3.08;;;;;;;10.49;54.25;101665.97;5000982;28;20416;-75
2024/02/05 03:45:06;;;;;;;8.77;3.05;;;;;;;10.50;54.16;101669.59;5024562;28;20582;-74
2024/02/05 03:47:36;;;;;;;9.65;2.95;;;;;;;10.51;53.65;101666.75;5024896;28;20050;-75
2024/02/05 03:50:05;;;;;;;9.95;3.47;;;;;;;10.50;53.73;101670.47;5012902;28;20456;-74
2024/02/05 03:52:33;;;;;;;8.77;3.10;;;;;;;10.50;53.48;101667.72;5023515;28;20405;-75
2024/02/05 03:55:02;;;;;;;10.35;3.40;;;;;;;10.49;53.40;101667.84;5002963;28;20045;-75
2024/02/05 03:57:30;;;;;;;7.18;2.78;;;;;;;10.49;53.90;101676.03;5022837;28;20041;-75
2024/02/05 03:59:59;;;;;;;10.68;3.20;;;;;;;10.49;53.76;101676.91;5006093;28;20049;-75
2024/02/05 04:02:28;;;;;;;9.90;3.45;;;;;;;10.49;53.53;101678.78;5007346;28;20180;-74
2024/02/05 04:04:58;;;;;;;7.60;3.08;;;;;;;10.50;53.76;101684.16;5027011;28;20045;-75
2024/02/05 04:07:25;;;;;;;8.70;3.00;;;;;;;10.50;53.72;101678.69;4999940;28;20061;-74
2024/02/05 04:09:53;;;;;;;9.20;2.85;;;;;;;10.49;53.66;101674.19;5017750;28;20141;-75
2024/02/05 04:12:21;;;;;;;10.27;3.10;;;;;;;10.48;53.88;101672.44;5022941;28;20069;-75
2024/02/05 04:14:49;;;;;;;9.93;2.75;;;;;;;10.48;53.38;101672.44;5020908;28;20137;-75
2024/02/05 04:17:17;;;;;;;8.07;3.03;;;;;;;10.49;53.30;101676.91;5024087;28;20041;-75
2024/02/05 04:19:45;;;;;;;8.35;2.75;;;;;;;10.48;53.83;101672.44;5003094;28;20053;-75
2024/02/05 04:22:15;;;;;;;8.18;2.88;;;;;;;10.49;53.69;101668.72;5029256;28;20095;-74
2024/02/05 04:24:45;;;;;;;10.35;3.20;;;;;;;10.48;53.30;101677.06;5019198;28;20077;-75
2024/02/05 04:27:14;;;;;;;8.25;3.53;;;;;;;10.48;53.56;101682.53;5022229;28;20437;-75
2024/02/05 04:29:43;;;;;;;9.55;3.00;;;;;;;10.47;53.69;101681.66;5021288;28;20525;-75
2024/02/05 04:32:11;;;;;;;10.45;3.33;;;;;;;10.46;53.23;101679.91;5003511;28;20049;-74
2024/02/05 04:34:39;;;;;;;8.10;2.92;;;;;;;10.47;53.21;101678.06;5031274;28;20499;-75
2024/02/05 04:37:08;;;;;;;8.68;3.05;;;;;;;10.46;53.44;101673.56;5002179;28;20092;-75
2024/02/05 04:39:37;;;;;;;10.73;3.00;;;;;;;10.47;53.47;101680.78;5024569;28;20096;-75
2024/02/05 04:42:05;;;;;;;9.25;3.30;;;;;;;10.46;53.04;101687.25;5019142;28;20041;-75
2024/02/05 04:44:33;;;;;;;13.65;3.92;;;;;;;10.45;53.48;101671.81;5000122;28;20042;-75
2024/02/05 04:47:01;;;;;;;11.82;3.88;;;;;;;10.45;53.56;101669.06;5026014;28;20046;-74
2024/02/05 04:49:29;;;;;;;10.85;3.58;;;;;;;10.44;52.92;101681.88;5018767;28;20046;-74
2024/02/05 04:51:58;;;;;;;10.60;3.03;;;;;;;10.44;52.75;101675.53;5014414;28;20421;-75
2024/02/05 04:54:29;;;;;;;9.52;3.20;;;;;;;10.43;53.34;101690.19;5020401;28;20041;-74
2024/02/05 04:56:58;;;;;;;8.20;3.20;;;;;;;10.42;53.10;101683.84;4997310;28;20049;-75
2024/02/05 04:59:26;;;;;;;8.65;3.17;;;;;;;10.41;53.06;101686.69;5009521;28;20038;-74
2024/02/05 05:01:54;;;;;;;8.50;3.85;;;;;;;10.40;52.87;101688.53;4995360;28;20445;-75
2024/02/05 05:04:23;;;;;;;12.63;3.70;;;;;;;10.40;53.26;101687.72;5024327;28;20500;-75
2024/02/05 05:06:51;;;;;;;8.60;3.78;;;;;;;10.40;53.27;101695.91;5018496;28;20041;-75
2024/02/05 05:09:20;;;;;;;9.25;3.30;;;;;;;10.39;52.66;101686.81;5021675;28;20049;-74
2024/02/05 05:11:48;;;;;;;9.82;3.85;;;;;;;10.40;53.24;101690.44;4997032;28;20069;-75
2024/02/05 05:14:17;;;;;;;9.55;3.35;;;;;;;10.40;53.27;101674.88;5002299;28;20151;-74
2024/02/05 05:16:45;;;;;;;12.23;3.33;;;;;;;10.39;52.61;101675.88;5019281;28;20052;-74
2024/02/05 05:19:13;;;;;;;10.80;3.42;;;;;;;10.39;53.19;101664.94;5015566;28;20090;-75
2024/02/05 05:21:41;;;;;;;10.57;3.13;;;;;;;10.39;52.98;101669.53;5011461;28;20465;-74
2024/02/05 05:24:10;;;;;;;11.70;3.83;;;;;;;10.39;52.68;101667.66;5013552;28;20053;-74
2024/02/05 05:26:38;;;;;;;8.73;3.28;;;;;;;10.39;52.92;101667.66;5019837;28;20358;-75
2024/02/05 05:29:05;;;;;;;9.60;3.28;;;;;;;10.38;53.00;101676.88;5073041;23;20049;-75
2024/02/05 05:31:35;;;;;;;10.82;3.20;;;;;;;10.39;53.00;101675.88;5004113;28;20103;-75
2024/02/05 05:34:05;;;;;;;8.38;3.00;;;;;;;10.37;52.59;101671.50;5002787;28;20049;-76
2024/02/05 05:36:34;;;;;;;7.63;3.03;;;;;;;10.37;52.68;101663.28;5003048;28;20552;-75
2024/02/05 05:39:05;;;;;;;7.82;3.03;;;;;;;10.37;52.50;101661.44;4986219;28;20061;-75
2024/02/05 05:41:35;;;;;;;9.85;3.33;;;;;;;10.36;52.67;101654.22;5012431;28;20056;-75
2024/02/05 05:44:05;;;;;;;12.48;3.90;;;;;;;10.35;52.61;101659.78;5020396;28;20046;-75
2024/02/05 05:46:34;;;;;;;11.77;3.53;;;;;;;10.36;52.62;101661.53;5013224;28;20069;-75
2024/02/05 05:49:02;;;;;;;10.35;3.30;;;;;;;10.36;52.55;101656.06;4991262;28;20049;-75
2024/02/05 05:51:30;;;;;;;10.68;3.55;;;;;;;10.37;52.81;101657.81;5014601;28;20080;-76
2024/02/05 05:53:58;;;;;;;9.18;3.15;;;;;;;10.36;52.97;101653.31;4989509;28;20502;-75
2024/02/05 05:56:26;;;;;;;8.15;3.78;;;;;;;10.36;52.87;101650.59;4991478;28;20061;-75
2024/02/05 05:58:54;;;;;;;9.77;3.83;;;;;;;10.36;52.81;101659.69;4991058;28;20046;-75
2024/02/05 06:01:22;;;;;;;10.68;3.53;;;;;;;10.36;52.81;101656.94;4997848;28;20049;-75
2024/02/05 06:03:53;;;;;;;10.70;3.45;;;;;;;10.37;52.73;101655.09;4991008;28;20061;-75
2024/02/05 06:06:21;;;;;;;9.98;3.05;;;;;;;10.36;52.70;101653.31;5010374;28;20038;-75
2024/02/05 06:08:49;;;;;;;12.27;3.65;;;;;;;10.35;52.35;101652.44;5014064;28;20505;-76
2024/02/05 06:11:17;;;;;;;7.22;3.10;;;;;;;10.36;52.65;101656.06;4993946;28;20042;-77
2024/02/05 06:13:45;;;;;;;11.77;3.63;;;;;;;10.35;52.20;101651.56;5018490;28;20524;-75
2024/02/05 06:16:13;;;;;;;9.55;3.42;;;;;;;10.35;52.55;101649.72;5017343;28;20056;-74
2024/02/05 06:18:41;;;;;;;9.30;3.83;;;;;;;10.34;52.18;101642.50;5014911;28;20044;-75
2024/02/05 06:21:10;;;;;;;9.70;3.38;;;;;;;10.36;51.98;101643.25;5007794;28;20428;-75
2024/02/05 06:23:38;;;;;;;9.68;3.40;;;;;;;10.33;52.21;101646.22;4995435;28;20072;-75
2024/02/05 06:26:08;;;;;;;10.68;3.42;;;;;;;10.32;52.49;101647.19;5005514;28;20376;-75
2024/02/05 06:28:37;;;;;;;10.38;3.20;;;;;;;10.31;52.03;101653.69;5001791;28;20073;-75
2024/02/05 06:31:05;;;;;;;9.50;3.38;;;;;;;10.32;51.96;101652.66;4988273;28;20042;-75
2024/02/05 06:33:33;;;;;;;7.85;3.08;;;;;;;10.32;52.48;101654.56;5005020;28;20064;-75
2024/02/05 06:36:01;;;;;;;7.28;2.80;;;;;;;10.30;52.25;101645.59;5007627;28;20058;-75
2024/02/05 06:38:31;;;;;;;7.45;3.38;;;;;;;10.31;52.44;101652.81;5003882;28;20049;-75
2024/02/05 06:40:59;;;;;;;9.07;3.10;;;;;;;10.30;52.00;101643.72;4993797;28;20152;-75
2024/02/05 06:43:28;;;;;;;9.82;2.72;;;;;;;10.29;51.89;101652.03;4990070;28;20489;-75
2024/02/05 06:45:56;;;;;;;7.28;3.08;;;;;;;10.28;51.81;101651.16;5008201;28;20046;-75
2024/02/05 06:48:24;;;;;;;7.78;3.30;;;;;;;10.27;51.75;101654.88;4990741;28;20056;-75
2024/02/05 06:50:52;;;;;;;9.07;3.30;;;;;;;10.26;52.25;101655.88;4990177;28;20046;-75
2024/02/05 06:53:20;;;;;;;7.05;3.03;;;;;;;10.27;52.20;101654.88;5002533;28;20096;-75
2024/02/05 06:55:49;;;;;;;13.13;4.03;;;;;;;10.27;52.01;101649.41;4996288;28;20045;-75
2024/02/05 06:58:19;;;;;;;10.65;3.85;;;;;;;10.25;52.00;101662.31;4985589;28;20050;-75
2024/02/05 07:00:47;;;;;;;8.48;3.25;;;;;;;10.23;52.27;101656.13;4982574;28;20069;-75
2024/02/05 07:03:16;;;;;;;10.15;3.40;;;;;;;10.22;51.97;101660.72;4991186;28;20042;-75
2024/02/05 07:05:46;;;;;;;10.48;2.80;;;;;;;10.22;51.58;101665.31;5011274;28;20049;-74
2024/02/05 07:08:14;;;;;;;9.35;2.72;;;;;;;10.21;51.54;101663.56;5004521;28;20125;-74
2024/02/05 07:10:43;;;;;;;9.85;3.28;;;;;;;10.21;51.61;101666.28;4996886;28;20159;-75
2024/02/05 07:13:13;;;;;;;8.55;2.65;;;;;;;10.22;51.71;101663.44;5000347;28;20034;-75
2024/02/05 07:15:41;;;;;;;14.40;4.15;;;;;;;10.20;51.84;101664.53;4991725;28;20055;-75
2024/02/05 07:18:09;;;;;;;6.97;2.83;;;;;;;10.19;51.44;101652.72;5006702;28;20049;-74
2024/02/05 07:20:37;;;;;;;9.88;2.85;;;;;;;10.20;51.53;101657.19;5014888;28;20118;-75
2024/02/05 07:23:05;;;;;;;7.75;2.95;;;;;;;10.21;51.72;101647.13;4995548;28;20131;-75
2024/02/05 07:25:38;;;;;;;9.02;2.95;;;;;;;10.18;51.44;101659.16;5012496;28;20049;-75
2024/02/05 07:28:06;;;;;;;9.38;2.85;;;;;;;10.18;51.37;101661.91;4991195;28;20164;-75
2024/02/05 07:30:36;;;;;;;10.52;3.47;;;;;;;10.20;51.62;101651.72;5012045;28;20041;-74
2024/02/05 07:33:04;;;;;;;11.00;3.15;;;;;;;10.17;51.51;101656.53;4989468;28;20104;-74
2024/02/05 07:35:32;;;;;;;10.07;3.03;;;;;;;10.15;51.64;101673.06;5002320;28;20044;-75
2024/02/05 07:38:00;;;;;;;9.18;3.08;;;;;;;10.15;51.17;101675.78;4994007;28;20054;-74
2024/02/05 07:40:28;;;;;;;7.97;3.13;;;;;;;10.16;51.49;101676.66;5012017;28;20061;-75
2024/02/05 07:42:57;;;;;;;7.53;3.03;;;;;;;10.13;51.34;101687.84;4996521;28;20034;-75
2024/02/05 07:45:25;;;;;;;8.80;3.15;;;;;;;10.13;50.88;101682.38;5005712;28;20057;-74
2024/02/05 07:47:56;;;;;;;9.10;3.15;;;;;;;10.14;51.18;101674.06;5014004;28;20045;-74
2024/02/05 07:50:24;;;;;;;10.32;3.08;;;;;;;10.11;51.46;101682.50;4992963;28;20097;-74
2024/02/05 07:52:52;;;;;;;9.30;3.28;;;;;;;10.11;51.29;101692.56;5001927;28;20052;-75
2024/02/05 07:55:20;;;;;;;9.88;3.85;;;;;;;10.10;51.04;101671.66;4999798;28;20493;-75
2024/02/05 07:57:48;;;;;;;11.77;3.63;;;;;;;10.09;51.25;101698.13;5015284;28;20050;-74
2024/02/05 08:00:17;;;;;;;9.60;3.20;;;;;;;10.09;50.71;101700.88;5017383;28;20505;-76
2024/02/05 08:02:45;;;;;;;9.80;3.80;;;;;;;10.08;50.94;101706.44;5016165;28;20052;-75
2024/02/05 08:05:14;;;;;;;8.55;3.30;;;;;;;10.09;50.73;101711.81;5015771;28;20076;-75
2024/02/05 08:07:43;;;;;;;6.90;2.83;;;;;;;10.07;51.33;101721.97;5017082;28;20057;-76
2024/02/05 08:10:12;;;;;;;9.88;3.78;;;;;;;10.08;50.93;101712.78;4994947;28;20037;-78
2024/02/05 08:12:40;;;;;;;9.02;3.00;;;;;;;10.08;50.66;101711.91;5018438;28;20041;-76
2024/02/05 08:15:09;;;;;;;8.40;3.03;;;;;;;10.07;51.20;101723.88;4997496;28;20464;-76
2024/02/05 08:17:37;;;;;;;7.13;2.80;;;;;;;10.06;50.69;101716.63;4989123;28;20056;-78
2024/02/05 08:20:08;;;;;;;11.52;3.40;;;;;;;10.07;51.10;101715.66;5012295;28;20060;-77
2024/02/05 08:22:38;;;;;;;8.32;3.00;;;;;;;10.07;51.16;101712.91;4999931;28;20051;-77
2024/02/05 08:25:06;;;;;;;7.13;2.72;;;;;;;10.06;51.24;101716.63;4996912;28;20062;-78
2024/02/05 08:27:35;;;;;;;6.78;2.90;;;;;;;10.06;50.77;101723.00;4997016;28;20051;-78
2024/02/05 08:30:03;;;;;;;11.35;3.10;;;;;;;10.06;51.04;101723.00;5014559;28;20646;-77
2024/02/05 08:32:31;;;;;;;9.43;3.20;;;;;;;10.06;50.88;101725.72;5014955;28;20056;-77
2024/02/05 08:34:59;;;;;;;11.55;3.47;;;;;;;10.06;51.02;101723.00;4999614;28;20137;-78
2024/02/05 08:37:28;;;;;;;10.35;3.45;;;;;;;10.07;51.08;101719.25;4994640;28;20140;-78
2024/02/05 08:40:00;;;;;;;9.85;3.15;;;;;;;10.08;50.74;101725.59;4992545;28;20412;-77
2024/02/05 08:42:28;;;;;;;10.35;2.90;;;;;;;10.07;50.73;101716.50;4994863;28;20588;-78
2024/02/05 08:45:00;;;;;;;9.93;3.03;;;;;;;10.05;50.80;101713.03;5000050;28;20041;-77
2024/02/05 08:47:31;;;;;;;9.05;3.60;;;;;;;10.09;50.87;101716.41;4996769;28;20108;-78
2024/02/05 08:50:00;;;;;;;8.43;3.00;;;;;;;10.08;50.34;101715.53;4987084;28;20049;-77
2024/02/05 08:52:28;;;;;;;9.77;3.80;;;;;;;10.08;50.46;101707.31;4993286;28;20509;-78
2024/02/05 08:54:56;;;;;;;7.18;2.72;;;;;;;10.08;50.34;101704.59;5015266;28;20128;-77
2024/02/05 08:57:26;;;;;;;8.38;3.10;;;;;;;10.11;50.79;101704.38;4998922;28;20042;-78
2024/02/05 08:59:54;;;;;;;8.05;3.08;;;;;;;10.09;50.75;101709.06;5019700;28;20061;-78
2024/02/05 09:02:22;;;;;;;10.18;3.58;;;;;;;10.10;50.29;101707.22;4990341;28;20405;-78
2024/02/05 09:04:50;;;;;;;9.65;3.17;;;;;;;10.09;50.38;101700.88;5017277;28;20056;-78
2024/02/05 09:07:18;;;;;;;11.05;3.05;;;;;;;10.11;50.76;101698.91;4996217;28;20513;-77
2024/02/05 09:09:46;;;;;;;7.63;3.03;;;;;;;10.10;50.31;101704.47;4996492;28;20050;-78
2024/02/05 09:12:15;;;;;;;9.35;2.72;;;;;;;10.11;50.18;101687.09;5009737;28;20045;-78
2024/02/05 09:14:44;;;;;;;10.70;3.13;;;;;;;10.12;50.56;101680.63;5018241;28;20045;-78
2024/02/05 09:17:12;;;;;;;9.57;3.25;;;;;;;10.09;50.30;101665.31;5015674;28;20046;-78
2024/02/05 09:19:40;;;;;;;11.88;3.50;;;;;;;10.10;50.44;101693.53;5006175;28;20124;-78
2024/02/05 09:22:08;;;;;;;8.05;3.42;;;;;;;10.10;49.99;101705.34;5001977;28;20056;-78
2024/02/05 09:24:36;;;;;;;7.95;2.70;;;;;;;10.10;50.53;101683.47;5017957;28;20034;-78
2024/02/05 09:27:05;;;;;;;9.82;3.05;;;;;;;10.11;50.41;101687.97;5001668;28;20054;-78
2024/02/05 09:29:33;;;;;;;9.93;2.80;;;;;;;10.12;50.10;101695.19;5022209;28;20034;-77
2024/02/05 09:32:04;;;;;;;8.65;2.80;;;;;;;10.13;50.15;101702.41;5005266;28;20053;-78
2024/02/05 09:34:33;;;;;;;10.38;3.30;;;;;;;10.13;49.95;101691.47;5001143;28;20043;-78
2024/02/05 09:37:01;;;;;;;10.18;3.25;;;;;;;10.13;50.13;101699.69;5015683;28;20109;-79
2024/02/05 09:39:29;;;;;;;10.82;3.08;;;;;;;10.14;50.37;101693.22;5002774;28;20057;-79
2024/02/05 09:42:01;;;;;;;8.32;2.88;;;;;;;10.17;49.46;101692.97;5028871;28;20068;-78
2024/02/05 09:44:35;;;;;;;10.10;3.45;;;;;;;10.16;50.08;101702.16;4993146;28;20054;-78
2024/02/05 09:47:07;;;;;;;9.82;2.88;;;;;;;10.18;49.82;101697.47;4998808;28;20046;-78
2024/02/05 09:49:36;;;;;;;9.40;3.38;;;;;;;10.18;49.96;101685.66;5006108;28;20042;-78
2024/02/05 09:52:08;;;;;;;10.90;3.20;;;;;;;10.16;49.63;101698.56;5015454;28;20050;-78
2024/02/05 09:54:41;;;;;;;10.35;3.67;;;;;;;10.18;49.90;101692.00;4993727;28;20042;-79
2024/02/05 09:57:10;;;;;;;;;;;;;;;9.91;50.08;101696.72;4998962;28;20056;-77
2024/02/05 09:59:39;;;;;;;7.45;2.65;;;;;;;10.13;50.27;101687.84;4995778;28;19921;-78
2024/02/05 10:02:10;;;;;;;8.55;3.20;;;;;;;10.19;49.74;101701.94;5012345;28;20076;-78
2024/02/05 10:04:45;;;;;;;10.55;3.75;;;;;;;10.19;50.17;101693.75;5019431;28;20140;-77
2024/02/05 10:07:14;;;;;;;10.40;3.67;;;;;;;10.21;49.60;101682.69;4998544;28;20033;-78
2024/02/05 10:09:43;;;;;;;9.32;3.17;;;;;;;10.21;49.94;101686.31;5017372;28;20065;-78
2024/02/05 10:12:13;;;;;;;8.75;3.15;;;;;;;10.21;49.69;101675.38;4997711;28;20100;-78
2024/02/05 10:14:42;;;;;;;9.00;3.70;;;;;;;10.23;49.66;101678.84;5018891;28;20041;-78
2024/02/05 10:17:12;;;;;;;9.77;3.40;;;;;;;10.26;49.84;101676.88;5005386;28;20068;-78
2024/02/05 10:19:40;;;;;;;11.20;3.10;;;;;;;10.24;49.66;101685.19;5003156;28;20056;-78
2024/02/05 10:22:09;;;;;;;9.05;3.03;;;;;;;10.28;49.64;101684.00;4992108;28;20086;-77
2024/02/05 10:24:40;;;;;;;8.45;3.05;;;;;;;10.30;49.71;101676.56;4995537;28;20045;-76
2024/02/05 10:27:09;;;;;;;9.27;3.80;;;;;;;10.26;49.83;101675.03;4998531;28;20049;-76
2024/02/05 10:29:38;;;;;;;8.20;4.07;;;;;;;10.32;49.52;101684.66;4996632;28;20050;-78
2024/02/05 10:32:07;;;;;;;9.68;3.28;;;;;;;10.34;49.40;101686.28;5017183;28;20046;-78
2024/02/05 10:34:36;;;;;;;7.47;3.00;;;;;;;10.36;49.33;101687.03;5006325;28;20034;-77
2024/02/05 10:37:07;;;;;;;10.80;3.00;;;;;;;10.37;49.88;101669.63;4994488;28;20042;-77
2024/02/05 10:39:36;;;;;;;9.13;3.22;;;;;;;10.38;49.87;101684.19;4990226;28;20105;-77
2024/02/05 10:42:04;;;;;;;8.40;3.33;;;;;;;10.41;49.46;101689.41;4998307;28;20049;-77
2024/02/05 10:44:41;;;;;;;11.43;3.75;;;;;;;10.42;49.39;101692.06;5018580;28;20597;-77
2024/02/05 10:47:12;;;;;;;8.25;2.95;;;;;;;10.44;49.39;101697.41;4997920;28;20069;-77
2024/02/05 10:49:42;;;;;;;8.80;3.20;;;;;;;10.47;49.65;101695.34;5004451;28;20052;-77
2024/02/05 10:52:14;;;;;;;10.18;3.40;;;;;;;10.49;49.23;101696.06;4999192;28;20378;-78
2024/02/05 10:54:45;;;;;;;7.20;2.92;;;;;;;10.49;49.32;101695.19;5015957;28;20042;-77
2024/02/05 10:57:18;;;;;;;11.55;3.58;;;;;;;10.51;49.28;101683.16;5000796;28;20073;-77
2024/02/05 10:59:46;;;;;;;;;;;;;;;10.24;49.23;101686.06;5002401;28;20042;-77
2024/02/05 11:02:20;;;;;;;5.93;2.80;;;;;;;10.50;48.86;101675.06;5002019;28;20464;-77
2024/02/05 11:04:52;;;;;;;8.43;2.88;;;;;;;10.56;48.92;101682.88;4993752;28;20046;-77
2024/02/05 11:07:23;;;;;;;9.32;3.03;;;;;;;10.54;49.33;101682.09;5019038;28;20049;-76
2024/02/05 11:09:57;;;;;;;9.50;3.30;;;;;;;10.58;49.22;101681.75;5009994;28;20051;-77
2024/02/05 11:12:30;;;;;;;10.88;4.00;;;;;;;10.60;48.98;101667.94;4999557;28;20124;-76
2024/02/05 11:15:06;;;;;;;7.90;3.30;;;;;;;10.63;48.61;101664.13;5003635;28;20037;-77
2024/02/05 11:17:37;;;;;;;10.95;3.78;;;;;;;10.61;49.02;101664.22;5001619;28;20453;-78
2024/02/05 11:20:10;;;;;;;8.98;3.45;;;;;;;10.65;48.71;101657.50;5004320;28;20074;-77
2024/02/05 11:22:43;;;;;;;9.63;3.30;;;;;;;10.67;48.46;101654.66;5001934;28;20080;-78
2024/02/05 11:25:13;;;;;;;9.30;3.45;;;;;;;10.65;48.46;101654.78;5001181;28;20037;-78
2024/02/05 11:27:44;;;;;;;10.30;3.00;;;;;;;10.69;48.44;101660.91;5005732;28;20398;-78
2024/02/05 11:30:15;;;;;;;10.95;3.25;;;;;;;10.68;48.20;101634.53;5004671;28;20517;-77
2024/02/05 11:32:43;;;;;;;10.57;4.10;;;;;;;10.70;48.33;101646.25;5006837;28;20076;-78